Time;durP1;ratioP1;P1;durP2;ratioP2;P2;SDS_P1;SDS_P2;PMS_P1;PMS_P2;Temp;Humidity;BMP_temperature;BMP_pressure;BME280_temperature;BME280_humidity;BME280_pressure;Samples;Min_cycle;Max_cycle;Signal;HPM_P1;HPM_P2
2023/08/05 00:00:22;;;;;;;4.07;3.63;;;17.30;99.90;;;;;;5097749;28;20473;-61
2023/08/05 00:02:50;;;;;;;4.23;3.83;;;17.30;99.90;;;;;;5102810;28;20444;-61
2023/08/05 00:05:18;;;;;;;3.53;3.23;;;17.30;99.90;;;;;;5111556;28;20449;-62
2023/08/05 00:07:45;;;;;;;6.60;3.60;;;17.30;99.90;;;;;;5105197;28;20492;-61
2023/08/05 00:10:12;;;;;;;5.90;4.30;;;17.30;99.90;;;;;;5088537;28;20477;-62
2023/08/05 00:12:39;;;;;;;4.13;3.83;;;17.30;99.90;;;;;;5091462;28;20458;-62
2023/08/05 00:15:07;;;;;;;5.90;3.70;;;17.30;99.90;;;;;;5088278;28;20442;-62
2023/08/05 00:17:33;;;;;;;5.73;3.80;;;17.30;99.90;;;;;;5070642;28;20476;-62
2023/08/05 00:20:02;;;;;;;5.67;3.90;;;17.30;99.90;;;;;;5070772;28;20481;-62
2023/08/05 00:22:28;;;;;;;4.80;3.60;;;17.30;99.90;;;;;;5071209;28;20459;-62
2023/08/05 00:24:56;;;;;;;5.67;3.60;;;17.30;99.90;;;;;;5089012;28;20539;-62
2023/08/05 00:27:22;;;;;;;6.83;3.83;;;17.20;99.90;;;;;;5090345;28;20484;-63
2023/08/05 00:29:49;;;;;;;6.30;3.70;;;17.20;99.90;;;;;;5099191;28;20463;-62
2023/08/05 00:32:16;;;;;;;4.13;3.80;;;17.20;99.90;;;;;;5106220;28;20443;-62
2023/08/05 00:34:43;;;;;;;3.90;3.63;;;17.20;99.90;;;;;;5110434;28;20909;-62
2023/08/05 00:37:11;;;;;;;3.87;3.57;;;17.20;99.90;;;;;;5110654;28;21170;-62
2023/08/05 00:39:38;;;;;;;4.30;3.90;;;17.10;99.90;;;;;;5111753;28;20899;-62
2023/08/05 00:42:05;;;;;;;4.50;3.87;;;17.10;99.90;;;;;;5111503;28;20454;-61
2023/08/05 00:44:32;;;;;;;4.23;3.90;;;17.10;99.90;;;;;;5111307;28;20447;-62
2023/08/05 00:47:00;;;;;;;4.43;4.10;;;17.10;99.90;;;;;;5110293;28;20532;-61
2023/08/05 00:49:29;;;;;;;4.20;3.90;;;17.10;99.90;;;;;;5111304;28;20946;-62
2023/08/05 00:51:57;;;;;;;5.33;4.53;;;17.10;99.90;;;;;;5110900;28;20454;-62
2023/08/05 00:54:25;;;;;;;5.50;4.40;;;17.00;99.90;;;;;;5111191;28;20567;-62
2023/08/05 00:56:53;;;;;;;4.60;3.93;;;17.00;99.90;;;;;;5110407;28;20450;-62
2023/08/05 00:59:20;;;;;;;4.30;3.90;;;17.00;99.90;;;;;;5111071;28;20480;-62
2023/08/05 01:01:47;;;;;;;4.10;3.80;;;17.00;99.90;;;;;;5110971;28;20453;-62
2023/08/05 01:04:14;;;;;;;4.20;3.90;;;17.00;99.90;;;;;;5110929;28;20450;-62
2023/08/05 01:06:42;;;;;;;3.93;3.60;;;17.00;99.90;;;;;;5109982;28;20533;-62
2023/08/05 01:09:09;;;;;;;4.73;4.30;;;16.90;99.90;;;;;;5111253;28;20486;-62
2023/08/05 01:11:38;;;;;;;6.90;4.40;;;16.90;99.90;;;;;;5110541;28;20597;-62
2023/08/05 01:14:05;;;;;;;3.93;3.50;;;16.90;99.90;;;;;;5110733;28;20887;-62
2023/08/05 01:16:31;;;;;;;4.20;3.90;;;16.90;99.90;;;;;;5109611;28;20488;-62
2023/08/05 01:19:00;;;;;;;4.33;3.90;;;16.90;99.90;;;;;;5110413;28;20447;-62
2023/08/05 01:21:34;;;;;;;5.50;4.20;;;16.90;99.90;;;;;;5110521;28;20841;-62
2023/08/05 01:24:11;;;;;;;4.50;3.90;;;16.80;99.90;;;;;;5110306;28;20472;-61
2023/08/05 01:26:40;;;;;;;4.20;3.90;;;16.80;99.90;;;;;;5109437;28;20450;-61
2023/08/05 01:29:08;;;;;;;4.53;3.80;;;16.80;99.90;;;;;;5110278;28;20489;-62
2023/08/05 01:31:36;;;;;;;7.60;4.10;;;16.80;99.90;;;;;;5110230;28;20464;-62
2023/08/05 01:34:03;;;;;;;5.53;4.23;;;16.80;99.90;;;;;;5109504;28;20447;-62
2023/08/05 01:36:31;;;;;;;4.50;4.13;;;16.70;99.90;;;;;;5109584;28;20545;-62
2023/08/05 01:38:57;;;;;;;4.50;3.93;;;16.70;99.90;;;;;;5110115;28;20886;-62
2023/08/05 01:41:24;;;;;;;4.60;4.30;;;16.70;99.90;;;;;;5109901;28;20468;-62
2023/08/05 01:43:53;;;;;;;4.67;4.27;;;16.70;99.90;;;;;;5110191;28;20457;-62
2023/08/05 01:46:19;;;;;;;7.30;3.90;;;16.70;99.90;;;;;;5109178;28;20545;-62
2023/08/05 01:48:46;;;;;;;5.10;4.60;;;16.70;99.90;;;;;;5109982;28;20494;-62
2023/08/05 01:51:13;;;;;;;5.97;4.60;;;16.70;99.90;;;;;;5109835;28;20555;-62
2023/08/05 01:53:40;;;;;;;3.90;3.60;;;16.70;99.90;;;;;;5110045;28;20451;-61
2023/08/05 01:56:07;;;;;;;6.23;4.20;;;16.70;99.90;;;;;;5108992;28;20538;-61
2023/08/05 01:58:34;;;;;;;4.73;4.10;;;16.70;99.90;;;;;;5110213;28;20473;-62
2023/08/05 02:01:02;;;;;;;4.30;3.90;;;16.70;99.90;;;;;;5109651;28;20470;-62
2023/08/05 02:03:29;;;;;;;4.23;3.83;;;16.70;99.90;;;;;;5109692;28;20498;-61
2023/08/05 02:05:55;;;;;;;4.43;4.10;;;16.70;99.90;;;;;;5109167;28;21094;-62
2023/08/05 02:08:22;;;;;;;5.07;4.67;;;16.70;99.90;;;;;;5109459;28;21006;-62
2023/08/05 02:10:49;;;;;;;4.10;3.80;;;16.70;99.90;;;;;;5109416;28;21230;-62
2023/08/05 02:13:16;;;;;;;3.83;3.53;;;16.70;99.90;;;;;;5109452;28;20452;-62
2023/08/05 02:15:43;;;;;;;4.90;4.27;;;16.70;99.90;;;;;;5109687;28;20460;-62
2023/08/05 02:18:11;;;;;;;4.90;4.50;;;16.70;99.90;;;;;;5108091;28;20996;-61
2023/08/05 02:20:38;;;;;;;4.37;4.00;;;16.60;99.90;;;;;;5109450;28;20467;-62
2023/08/05 02:23:05;;;;;;;4.20;3.90;;;16.70;99.90;;;;;;5109318;28;20493;-62
2023/08/05 02:25:32;;;;;;;4.40;3.67;;;16.70;99.90;;;;;;5109388;28;20446;-61
2023/08/05 02:27:59;;;;;;;5.47;5.07;;;16.70;99.90;;;;;;5108508;28;20507;-62
2023/08/05 02:30:26;;;;;;;4.23;3.93;;;16.60;99.90;;;;;;5109477;28;20955;-62
2023/08/05 02:32:52;;;;;;;3.83;3.53;;;16.60;99.90;;;;;;5109504;28;20555;-61
2023/08/05 02:35:20;;;;;;;4.33;4.03;;;16.60;99.90;;;;;;5108305;28;20455;-62
2023/08/05 02:37:47;;;;;;;4.90;4.50;;;16.60;99.90;;;;;;5108620;28;20447;-62
2023/08/05 02:40:14;;;;;;;4.60;4.27;;;16.60;99.90;;;;;;5109030;28;21089;-62
2023/08/05 02:42:41;;;;;;;4.13;3.63;;;16.50;99.90;;;;;;5108940;28;20451;-62
2023/08/05 02:45:09;;;;;;;5.10;4.60;;;16.50;99.90;;;;;;5108981;28;20448;-62
2023/08/05 02:47:36;;;;;;;4.90;4.50;;;16.50;99.90;;;;;;5108156;28;20554;-62
2023/08/05 02:50:02;;;;;;;4.27;3.90;;;16.40;99.90;;;;;;5109242;28;20466;-62
2023/08/05 02:52:31;;;;;;;4.57;4.17;;;16.40;99.90;;;;;;5109025;28;20504;-62
2023/08/05 02:54:57;;;;;;;5.13;3.77;;;16.30;99.90;;;;;;5109114;28;20453;-62
2023/08/05 02:57:24;;;;;;;4.43;4.07;;;16.30;99.90;;;;;;5108004;28;20453;-62
2023/08/05 02:59:51;;;;;;;4.30;3.90;;;16.30;99.90;;;;;;5108653;28;21016;-62
2023/08/05 03:02:18;;;;;;;4.57;4.27;;;16.20;99.90;;;;;;5108712;28;20533;-62
2023/08/05 03:04:45;;;;;;;8.07;4.00;;;16.20;99.90;;;;;;5108849;28;20446;-62
2023/08/05 03:07:12;;;;;;;5.50;4.57;;;16.10;99.90;;;;;;5108007;28;20450;-62
2023/08/05 03:09:40;;;;;;;5.27;3.77;;;16.10;99.90;;;;;;5108354;28;20498;-62
2023/08/05 03:12:08;;;;;;;4.30;3.90;;;16.00;99.90;;;;;;5108646;28;20502;-62
2023/08/05 03:14:35;;;;;;;4.70;4.30;;;16.00;99.90;;;;;;5108737;28;20537;-62
2023/08/05 03:17:02;;;;;;;4.50;4.10;;;15.90;99.90;;;;;;5108307;28;20449;-62
2023/08/05 03:19:29;;;;;;;4.60;4.20;;;15.90;99.90;;;;;;5108584;28;20441;-62
2023/08/05 03:21:56;;;;;;;4.13;3.80;;;15.80;99.90;;;;;;5108672;28;20457;-61
2023/08/05 03:24:22;;;;;;;4.47;4.00;;;15.70;99.90;;;;;;5108672;28;20840;-61
2023/08/05 03:26:51;;;;;;;4.20;3.90;;;15.70;99.90;;;;;;5107557;28;20458;-62
2023/08/05 03:29:17;;;;;;;4.10;3.60;;;15.60;99.90;;;;;;5105892;28;20489;-61
2023/08/05 03:31:44;;;;;;;5.47;3.93;;;15.60;99.90;;;;;;5101374;28;20471;-62
2023/08/05 03:34:11;;;;;;;3.80;3.50;;;15.50;99.90;;;;;;5112530;28;20454;-62
2023/08/05 03:36:38;;;;;;;4.20;3.80;;;15.50;99.90;;;;;;5103092;28;20451;-62
2023/08/05 03:39:05;;;;;;;5.83;4.00;;;15.40;99.90;;;;;;5105784;28;20529;-62
2023/08/05 03:41:33;;;;;;;6.60;4.10;;;15.40;99.90;;;;;;5112524;28;20472;-61
2023/08/05 03:44:02;;;;;;;5.03;4.63;;;15.40;99.90;;;;;;5093422;28;20532;-62
2023/08/05 03:46:29;;;;;;;4.87;3.80;;;15.30;99.90;;;;;;5103102;28;20451;-62
2023/08/05 03:48:56;;;;;;;4.60;4.20;;;15.20;99.90;;;;;;5111856;28;20487;-62
2023/08/05 03:51:23;;;;;;;4.40;4.00;;;15.20;99.90;;;;;;5112184;28;20557;-62
2023/08/05 03:53:49;;;;;;;7.37;4.90;;;15.20;99.90;;;;;;5111135;28;20442;-62
2023/08/05 03:56:19;;;;;;;4.10;3.80;;;15.20;99.90;;;;;;5111465;28;20455;-62
2023/08/05 03:58:46;;;;;;;3.87;3.57;;;15.20;99.90;;;;;;5111856;28;20481;-61
2023/08/05 04:01:17;;;;;;;4.80;3.57;;;15.10;99.90;;;;;;5093457;28;20481;-62
2023/08/05 04:03:43;;;;;;;8.17;3.90;;;15.10;99.90;;;;;;5091645;28;20589;-62
2023/08/05 04:06:11;;;;;;;7.43;4.60;;;15.00;99.90;;;;;;5091058;28;20536;-62
2023/08/05 04:08:39;;;;;;;4.37;4.07;;;15.00;99.90;;;;;;5091661;28;20542;-62
2023/08/05 04:11:08;;;;;;;4.67;4.27;;;15.00;99.90;;;;;;5091151;28;20486;-62
2023/08/05 04:13:37;;;;;;;4.23;3.77;;;15.00;99.90;;;;;;5091560;28;20457;-62
2023/08/05 04:16:04;;;;;;;3.67;3.40;;;15.00;99.90;;;;;;5090679;28;20450;-62
2023/08/05 04:18:36;;;;;;;5.10;4.10;;;15.00;99.90;;;;;;5091515;28;20955;-62
2023/08/05 04:21:04;;;;;;;5.57;3.70;;;15.00;99.90;;;;;;5091301;28;20549;-62
2023/08/05 04:23:32;;;;;;;5.07;3.93;;;15.00;99.90;;;;;;5091370;28;20578;-61
2023/08/05 04:26:00;;;;;;;5.03;3.90;;;15.00;99.90;;;;;;5090261;28;20450;-61
2023/08/05 04:28:27;;;;;;;3.77;3.47;;;15.00;99.90;;;;;;5088471;28;21049;-61
2023/08/05 04:30:54;;;;;;;4.30;3.90;;;15.00;99.90;;;;;;5071496;28;20474;-62
2023/08/05 04:33:21;;;;;;;4.00;3.70;;;15.00;99.90;;;;;;5072422;28;20462;-62
2023/08/05 04:35:50;;;;;;;4.80;4.40;;;15.00;99.90;;;;;;5071895;28;20518;-61
2023/08/05 04:38:17;;;;;;;5.00;4.53;;;15.00;99.90;;;;;;5071774;28;20516;-61
2023/08/05 04:40:44;;;;;;;4.73;4.33;;;15.00;99.90;;;;;;5070912;28;20555;-61
2023/08/05 04:43:11;;;;;;;8.50;4.20;;;15.00;99.90;;;;;;5071923;28;20536;-62
2023/08/05 04:45:38;;;;;;;4.27;3.83;;;15.00;99.90;;;;;;5072021;28;20513;-62
2023/08/05 04:48:06;;;;;;;4.33;3.93;;;15.00;99.90;;;;;;5071172;28;20528;-62
2023/08/05 04:50:33;;;;;;;4.00;3.67;;;15.00;99.90;;;;;;5071821;28;20493;-62
2023/08/05 04:53:01;;;;;;;4.47;4.07;;;15.10;99.90;;;;;;5070825;28;20447;-63
2023/08/05 04:55:28;;;;;;;4.60;4.20;;;15.10;99.90;;;;;;5071980;28;20459;-62
2023/08/05 04:57:56;;;;;;;4.73;4.20;;;15.10;99.90;;;;;;5070969;28;20451;-61
2023/08/05 05:00:23;;;;;;;5.00;4.70;;;15.10;99.90;;;;;;5072143;28;20476;-61
2023/08/05 05:02:50;;;;;;;5.30;4.40;;;15.20;99.90;;;;;;5070998;28;20449;-62
2023/08/05 05:05:17;;;;;;;5.63;4.77;;;15.20;99.90;;;;;;5078640;28;20531;-62
2023/08/05 05:07:44;;;;;;;6.17;4.20;;;15.30;99.90;;;;;;5084103;28;20447;-62
2023/08/05 05:10:12;;;;;;;4.90;3.70;;;15.30;99.90;;;;;;5088884;28;21225;-61
2023/08/05 05:12:39;;;;;;;5.73;4.80;;;15.40;99.90;;;;;;5092004;28;20446;-62
2023/08/05 05:15:06;;;;;;;5.20;4.80;;;15.40;99.90;;;;;;5088567;28;20872;-63
2023/08/05 05:17:34;;;;;;;5.20;4.70;;;15.40;99.90;;;;;;5075717;28;20867;-62
2023/08/05 05:20:01;;;;;;;5.40;4.33;;;15.40;99.90;;;;;;5070041;28;20542;-62
2023/08/05 05:22:28;;;;;;;5.67;5.27;;;15.40;99.90;;;;;;5075651;28;20879;-63
2023/08/05 05:24:55;;;;;;;7.00;5.20;;;15.50;99.90;;;;;;5077497;28;20459;-63
2023/08/05 05:27:23;;;;;;;4.60;4.00;;;15.60;99.90;;;;;;5077847;28;20574;-63
2023/08/05 05:29:50;;;;;;;5.77;5.27;;;15.60;99.90;;;;;;5069909;28;20578;-63
2023/08/05 05:32:17;;;;;;;5.17;4.60;;;15.70;99.90;;;;;;5070089;28;20447;-62
2023/08/05 05:34:44;;;;;;;3.80;3.50;;;15.80;99.90;;;;;;5070742;28;20508;-63
2023/08/05 05:37:11;;;;;;;5.30;4.80;;;15.90;99.90;;;;;;5070113;28;20448;-63
2023/08/05 05:39:39;;;;;;;4.27;3.87;;;15.90;99.90;;;;;;5071322;28;20456;-63
2023/08/05 05:42:06;;;;;;;4.00;3.70;;;16.00;99.90;;;;;;5084933;28;20443;-62
2023/08/05 05:44:35;;;;;;;3.77;3.33;;;16.00;99.90;;;;;;5090766;28;20465;-62
2023/08/05 05:47:01;;;;;;;3.60;3.40;;;16.10;99.90;;;;;;5090267;28;20462;-63
2023/08/05 05:49:28;;;;;;;4.13;3.80;;;16.10;99.90;;;;;;5090840;28;20573;-63
2023/08/05 05:51:55;;;;;;;3.90;3.60;;;16.30;99.90;;;;;;5091080;28;21030;-62
2023/08/05 05:54:23;;;;;;;4.07;3.50;;;16.30;99.90;;;;;;5089835;28;20444;-62
2023/08/05 05:56:50;;;;;;;5.47;3.70;;;16.30;99.90;;;;;;5077264;28;20528;-62
2023/08/05 05:59:16;;;;;;;3.80;3.40;;;16.30;99.90;;;;;;5071066;28;20499;-62
2023/08/05 06:01:45;;;;;;;3.83;3.53;;;16.40;99.90;;;;;;5070768;28;20465;-62
2023/08/05 06:04:11;;;;;;;4.17;3.77;;;16.40;99.90;;;;;;5071040;28;20473;-62
2023/08/05 06:06:38;;;;;;;4.10;3.70;;;16.40;99.90;;;;;;5070039;28;20452;-62
2023/08/05 06:09:07;;;;;;;4.20;3.70;;;16.50;99.90;;;;;;5070345;28;20850;-62
2023/08/05 06:11:33;;;;;;;4.73;3.47;;;16.50;99.90;;;;;;5070323;28;20540;-62
2023/08/05 06:14:00;;;;;;;4.03;3.73;;;16.50;99.90;;;;;;5070466;28;20451;-63
2023/08/05 06:16:27;;;;;;;3.90;3.60;;;16.70;99.90;;;;;;5069845;28;20560;-62
2023/08/05 06:18:55;;;;;;;3.43;2.97;;;16.80;99.90;;;;;;5070979;28;20536;-62
2023/08/05 06:21:22;;;;;;;3.40;2.70;;;16.90;99.90;;;;;;5070281;28;20515;-62
2023/08/05 06:23:49;;;;;;;2.87;2.67;;;17.00;99.90;;;;;;5069606;28;20449;-62
2023/08/05 06:26:16;;;;;;;3.77;2.70;;;17.10;99.90;;;;;;5068394;28;20454;-62
2023/08/05 06:28:42;;;;;;;3.30;3.10;;;17.30;99.90;;;;;;5087805;28;20457;-63
2023/08/05 06:31:09;;;;;;;2.80;2.60;;;17.50;99.90;;;;;;5089654;28;20498;-62
2023/08/05 06:33:36;;;;;;;5.40;2.80;;;17.70;99.90;;;;;;5089262;28;21014;-63
2023/08/05 06:36:05;;;;;;;3.33;3.07;;;17.80;99.90;;;;;;5088737;28;20544;-63
2023/08/05 06:38:32;;;;;;;2.87;2.50;;;17.90;99.90;;;;;;5089501;28;20453;-62
2023/08/05 06:40:58;;;;;;;3.13;2.83;;;18.10;99.90;;;;;;5089499;28;20470;-63
2023/08/05 06:43:25;;;;;;;2.83;2.63;;;18.20;99.90;;;;;;5089787;28;20450;-63
2023/08/05 06:45:52;;;;;;;2.73;2.53;;;18.20;99.90;;;;;;5089280;28;20893;-63
2023/08/05 06:48:19;;;;;;;2.83;2.53;;;18.40;99.90;;;;;;5089751;28;20453;-62
2023/08/05 06:50:46;;;;;;;2.93;2.63;;;18.50;99.90;;;;;;5089305;28;21104;-63
2023/08/05 06:53:14;;;;;;;3.37;3.07;;;18.70;99.90;;;;;;5089552;28;20458;-63
2023/08/05 06:55:41;;;;;;;2.80;2.53;;;18.90;99.90;;;;;;5089256;28;20500;-62
2023/08/05 06:58:08;;;;;;;2.23;2.13;;;19.00;99.90;;;;;;5088924;28;20450;-63
2023/08/05 07:00:35;;;;;;;7.00;2.60;;;19.10;99.90;;;;;;5089446;28;20795;-63
2023/08/05 07:03:02;;;;;;;2.20;2.10;;;19.30;99.90;;;;;;5089657;28;20453;-62
2023/08/05 07:05:29;;;;;;;2.70;2.50;;;19.50;99.90;;;;;;5088677;28;20449;-62
2023/08/05 07:07:56;;;;;;;2.30;2.20;;;19.50;99.90;;;;;;5081491;28;20458;-63
2023/08/05 07:10:25;;;;;;;3.20;2.90;;;19.70;99.90;;;;;;5068466;28;20491;-63
2023/08/05 07:12:51;;;;;;;2.27;2.10;;;19.80;99.90;;;;;;5069540;28;20471;-62
2023/08/05 07:15:18;;;;;;;1.90;1.80;;;19.90;99.90;;;;;;5068844;28;21110;-63
2023/08/05 07:17:45;;;;;;;2.27;2.17;;;20.00;99.90;;;;;;5068591;28;20451;-63
2023/08/05 07:20:12;;;;;;;2.40;2.20;;;20.20;99.90;;;;;;5068843;28;20835;-63
2023/08/05 07:22:39;;;;;;;2.17;1.97;;;20.30;99.90;;;;;;5068811;28;20467;-63
2023/08/05 07:25:07;;;;;;;1.93;1.83;;;20.40;99.90;;;;;;5068907;28;20444;-63
2023/08/05 07:27:35;;;;;;;1.90;1.80;;;20.40;99.90;;;;;;5068034;28;20475;-63
2023/08/05 07:30:02;;;;;;;2.70;2.50;;;20.50;99.90;;;;;;5068816;28;21062;-63
2023/08/05 07:32:31;;;;;;;3.07;2.40;;;20.60;99.90;;;;;;5069020;28;20455;-62
2023/08/05 07:34:59;;;;;;;1.77;1.67;;;20.80;99.90;;;;;;5069428;28;20460;-63
2023/08/05 07:37:26;;;;;;;1.63;1.53;;;20.90;99.90;;;;;;5068244;28;20455;-63
2023/08/05 07:39:53;;;;;;;2.10;1.97;;;20.90;99.90;;;;;;5068993;28;20465;-63
2023/08/05 07:42:22;;;;;;;5.93;2.73;;;21.00;99.90;;;;;;5068752;28;20524;-63
2023/08/05 07:44:52;;;;;;;3.67;2.00;;;21.10;99.90;;;;;;5069059;28;20455;-63
2023/08/05 07:47:19;;;;;;;2.83;1.97;;;21.10;99.90;;;;;;5068331;28;20464;-63
2023/08/05 07:49:48;;;;;;;2.50;2.30;;;21.10;99.90;;;;;;5068398;28;20497;-63
2023/08/05 07:52:15;;;;;;;2.23;2.03;;;21.10;99.90;;;;;;5068429;28;20953;-63
2023/08/05 07:54:41;;;;;;;2.30;2.10;;;21.20;99.90;;;;;;5079415;28;20461;-63
2023/08/05 07:57:09;;;;;;;1.70;1.60;;;21.30;99.90;;;;;;5069761;28;20465;-62
2023/08/05 07:59:36;;;;;;;3.43;2.40;;;21.40;99.90;;;;;;5078459;28;20524;-63
2023/08/05 08:02:07;;;;;;;3.67;3.37;;;21.50;99.90;;;;;;5089484;28;20527;-63
2023/08/05 08:04:34;;;;;;;3.50;2.00;;;21.40;99.90;;;;;;5076812;28;20459;-63
2023/08/05 08:07:01;;;;;;;1.80;1.70;;;21.50;99.90;;;;;;5068154;28;20488;-63
2023/08/05 08:09:28;;;;;;;2.33;2.13;;;21.60;99.90;;;;;;5080015;28;20872;-63
2023/08/05 08:11:55;;;;;;;2.10;2.00;;;21.70;99.90;;;;;;5088504;28;20534;-64
2023/08/05 08:14:22;;;;;;;2.17;2.07;;;21.80;99.90;;;;;;5080124;28;21366;-63
2023/08/05 08:16:48;;;;;;;1.97;1.87;;;21.90;99.90;;;;;;5069684;28;20472;-63
2023/08/05 08:19:18;;;;;;;2.20;1.90;;;22.00;99.90;;;;;;5083293;28;20466;-63
2023/08/05 08:21:45;;;;;;;1.87;1.77;;;22.00;99.90;;;;;;5083840;28;20471;-63
2023/08/05 08:24:12;;;;;;;2.03;1.80;;;22.10;99.90;;;;;;5089152;28;20487;-63
2023/08/05 08:26:39;;;;;;;2.03;1.83;;;22.10;99.90;;;;;;5082061;28;20954;-63
2023/08/05 08:29:06;;;;;;;2.00;1.90;;;22.10;99.90;;;;;;5084132;28;20452;-63
2023/08/05 08:31:33;;;;;;;1.50;1.43;;;22.10;99.90;;;;;;5075414;28;20497;-63
2023/08/05 08:34:00;;;;;;;2.03;1.93;;;22.20;99.90;;;;;;5085075;28;20522;-62
2023/08/05 08:36:28;;;;;;;1.90;1.73;;;22.20;99.90;;;;;;5090000;28;20456;-63
2023/08/05 08:38:55;;;;;;;2.17;2.07;;;22.20;99.90;;;;;;5093224;28;20456;-63
2023/08/05 08:41:23;;;;;;;1.90;1.80;;;22.00;99.90;;;;;;5092442;28;21229;-62
2023/08/05 08:43:51;;;;;;;2.50;2.30;;;21.90;99.90;;;;;;5090250;28;20451;-62
2023/08/05 08:46:21;;;;;;;4.03;2.23;;;21.70;99.90;;;;;;5090405;28;20444;-63
2023/08/05 08:48:49;;;;;;;1.77;1.67;;;21.60;99.90;;;;;;5086853;28;20902;-62
2023/08/05 08:51:18;;;;;;;4.23;1.57;;;21.50;99.90;;;;;;5072548;28;20502;-63
2023/08/05 08:53:48;;;;;;;1.80;1.70;;;21.50;99.90;;;;;;5076828;28;20546;-63
2023/08/05 08:56:15;;;;;;;2.77;1.30;;;21.60;99.90;;;;;;5090703;28;20979;-62
2023/08/05 08:58:41;;;;;;;2.33;1.70;;;21.70;99.90;;;;;;5077608;28;20459;-63
2023/08/05 09:01:08;;;;;;;1.60;1.50;;;21.90;99.90;;;;;;5085712;28;20482;-62
2023/08/05 09:03:37;;;;;;;1.43;1.33;;;22.10;99.90;;;;;;5092086;28;20544;-62
2023/08/05 09:06:04;;;;;;;1.43;1.37;;;22.20;99.90;;;;;;5087556;28;20468;-62
2023/08/05 09:08:31;;;;;;;1.97;1.77;;;22.30;99.90;;;;;;5076017;28;20456;-62
2023/08/05 09:11:00;;;;;;;1.67;1.57;;;22.40;98.90;;;;;;5091477;28;20498;-62
2023/08/05 09:13:27;;;;;;;2.93;1.67;;;22.50;99.90;;;;;;5074234;28;20461;-63
2023/08/05 09:15:55;;;;;;;1.47;1.37;;;22.60;99.90;;;;;;5080420;28;20490;-62
2023/08/05 09:18:22;;;;;;;1.50;1.40;;;22.70;99.90;;;;;;5081936;28;20465;-63
2023/08/05 09:20:51;;;;;;;2.33;1.27;;;22.90;99.90;;;;;;5074215;28;20546;-62
2023/08/05 09:23:18;;;;;;;1.50;1.40;;;23.10;99.90;;;;;;5071809;28;20472;-63
2023/08/05 09:25:48;;;;;;;2.80;1.60;;;23.20;99.90;;;;;;5073034;28;20454;-62
2023/08/05 09:28:30;;;;;;;1.50;1.50;;;23.30;99.40;;;;;;5091606;28;21254;-63
2023/08/05 09:31:12;;;;;;;1.53;1.30;;;23.40;99.20;;;;;;5091627;28;20489;-63
2023/08/05 09:33:40;;;;;;;1.60;1.43;;;23.60;98.50;;;;;;5091927;28;20593;-63
2023/08/05 09:36:11;;;;;;;1.57;1.47;;;23.70;98.50;;;;;;5090851;28;20450;-63
2023/08/05 09:38:39;;;;;;;1.60;1.50;;;23.60;96.60;;;;;;5092435;28;20528;-63
2023/08/05 09:41:07;;;;;;;2.13;1.50;;;23.70;97.80;;;;;;5091495;28;20577;-63
2023/08/05 09:43:40;;;;;;;2.50;1.93;;;23.70;98.30;;;;;;5090986;28;20454;-62
2023/08/05 09:46:11;;;;;;;1.30;1.30;;;23.60;97.10;;;;;;5090494;28;20456;-63
2023/08/05 09:48:42;;;;;;;1.50;1.40;;;23.50;98.20;;;;;;5091866;28;20992;-63
2023/08/05 09:51:11;;;;;;;1.83;1.73;;;23.50;96.20;;;;;;5090526;28;20592;-63
2023/08/05 09:53:40;;;;;;;1.50;1.40;;;23.50;97.20;;;;;;5090513;28;20448;-61
2023/08/05 09:56:07;;;;;;;1.70;1.60;;;23.40;96.90;;;;;;5084330;28;20454;-63
2023/08/05 09:58:37;;;;;;;2.37;1.70;;;23.40;95.20;;;;;;5070060;28;20515;-62
2023/08/05 10:01:07;;;;;;;2.23;1.60;;;23.50;96.60;;;;;;5069635;28;20552;-63
2023/08/05 10:03:38;;;;;;;1.33;1.33;;;23.50;95.70;;;;;;5070360;28;20459;-63
2023/08/05 10:06:07;;;;;;;1.70;1.60;;;23.50;95.80;;;;;;5069759;28;21021;-62
2023/08/05 10:08:36;;;;;;;1.63;1.27;;;23.50;96.20;;;;;;5070091;28;20447;-62
2023/08/05 10:11:04;;;;;;;1.60;1.50;;;23.50;96.00;;;;;;5070394;28;20498;-62
2023/08/05 10:13:37;;;;;;;1.80;1.70;;;23.40;94.50;;;;;;5069984;28;20948;-62
2023/08/05 10:16:05;;;;;;;2.10;2.00;;;23.40;95.30;;;;;;5072805;28;20463;-62
2023/08/05 10:18:34;;;;;;;1.40;1.30;;;23.50;95.30;;;;;;5074766;28;20456;-62
2023/08/05 10:21:04;;;;;;;1.50;1.40;;;23.40;93.20;;;;;;5091413;28;20503;-62
2023/08/05 10:23:33;;;;;;;1.67;1.57;;;23.50;94.30;;;;;;5089701;28;20454;-62
2023/08/05 10:26:02;;;;;;;1.47;1.37;;;23.50;93.30;;;;;;5089575;28;20976;-62
2023/08/05 10:28:51;;;;;;;1.53;1.40;;;23.60;95.10;;;;;;5090890;28;20453;-62
2023/08/05 10:31:26;;;;;;;2.90;2.10;;;23.70;94.00;;;;;;5071176;28;20506;-62
2023/08/05 10:34:08;;;;;;;1.77;1.43;;;23.80;95.50;;;;;;5072930;28;20535;-62
2023/08/05 10:36:42;;;;;;;1.63;1.53;;;23.90;93.00;;;;;;5078496;28;20446;-62
2023/08/05 10:39:43;;;;;;;1.83;1.73;;;23.90;94.00;;;;;;5083372;28;20948;-62
2023/08/05 10:42:34;;;;;;;2.70;2.60;;;23.90;93.80;;;;;;5075002;28;20963;-62
2023/08/05 10:45:06;;;;;;;1.77;1.67;;;23.80;93.90;;;;;;5076132;28;20450;-63
2023/08/05 10:47:34;;;;;;;2.10;1.90;;;23.70;92.40;;;;;;5084512;28;20537;-62
2023/08/05 10:50:01;;;;;;;1.40;1.33;;;23.80;92.50;;;;;;5074339;28;20465;-62
2023/08/05 10:52:28;;;;;;;1.73;1.63;;;23.80;93.10;;;;;;5080633;28;20487;-62
2023/08/05 10:54:56;;;;;;;1.73;1.23;;;23.80;94.20;;;;;;5081854;28;20451;-62
2023/08/05 10:57:48;;;;;;;1.50;1.50;;;23.70;94.10;;;;;;5084918;28;20534;-63
2023/08/05 11:00:23;;;;;;;1.70;1.60;;;23.70;93.40;;;;;;5076931;28;20520;-61
2023/08/05 11:03:10;;;;;;;1.80;1.70;;;23.60;95.50;;;;;;5077261;28;20461;-62
2023/08/05 11:05:37;;;;;;;1.60;1.50;;;23.50;94.80;;;;;;5085285;28;20536;-62
2023/08/05 11:08:05;;;;;;;1.53;1.43;;;23.40;94.20;;;;;;5073813;28;20445;-62
2023/08/05 11:10:32;;;;;;;1.70;1.50;;;23.30;95.00;;;;;;5079920;28;20557;-62
2023/08/05 11:12:59;;;;;;;2.57;1.83;;;23.20;94.80;;;;;;5081913;28;20449;-62
2023/08/05 11:15:27;;;;;;;3.70;1.33;;;23.10;95.10;;;;;;5072583;28;20447;-63
2023/08/05 11:17:55;;;;;;;1.70;1.60;;;23.10;96.10;;;;;;5084662;28;21023;-62
2023/08/05 11:20:31;;;;;;;1.93;1.80;;;23.10;96.30;;;;;;5072231;28;20478;-61
2023/08/05 11:22:58;;;;;;;1.87;1.77;;;23.10;94.40;;;;;;5069207;28;21169;-62
2023/08/05 11:25:25;;;;;;;1.93;1.80;;;23.00;95.60;;;;;;5086161;28;20838;-62
2023/08/05 11:27:53;;;;;;;2.33;2.23;;;23.00;92.60;;;;;;5072021;28;20473;-62
2023/08/05 11:30:21;;;;;;;2.23;2.13;;;23.00;93.40;;;;;;5081360;28;20479;-63
2023/08/05 11:32:56;;;;;;;1.93;1.83;;;23.10;93.10;;;;;;5079909;28;20489;-62
2023/08/05 11:35:23;;;;;;;1.83;1.70;;;23.40;94.40;;;;;;5071925;28;20446;-62
2023/08/05 11:37:50;;;;;;;1.80;1.67;;;23.50;94.50;;;;;;5080909;28;20449;-62
2023/08/05 11:40:17;;;;;;;1.67;1.57;;;23.70;95.10;;;;;;5080743;28;20471;-62
2023/08/05 11:42:44;;;;;;;1.93;1.80;;;23.90;95.40;;;;;;5078914;28;20938;-62
2023/08/05 11:45:12;;;;;;;2.77;2.10;;;24.10;95.60;;;;;;5074022;28;20559;-61
2023/08/05 11:47:40;;;;;;;1.47;1.37;;;24.10;94.90;;;;;;5084437;28;20447;-62
2023/08/05 11:50:09;;;;;;;1.70;1.60;;;24.00;94.30;;;;;;5073996;28;20470;-62
2023/08/05 11:52:37;;;;;;;1.70;1.60;;;24.00;93.80;;;;;;5082480;28;20569;-62
2023/08/05 11:55:06;;;;;;;1.80;1.70;;;23.90;94.20;;;;;;5085999;28;20447;-62
2023/08/05 11:57:33;;;;;;;2.20;2.00;;;23.90;94.70;;;;;;5074960;28;20448;-62
2023/08/05 12:00:05;;;;;;;1.90;1.80;;;23.70;95.00;;;;;;5087275;28;20463;-61
2023/08/05 12:02:34;;;;;;;1.63;1.53;;;23.60;94.40;;;;;;5081188;28;21128;-62
2023/08/05 12:05:02;;;;;;;1.77;1.67;;;23.50;94.30;;;;;;5078752;28;20447;-61
2023/08/05 12:07:30;;;;;;;1.93;1.80;;;23.30;94.30;;;;;;5087702;28;20450;-62
2023/08/05 12:10:08;;;;;;;2.00;1.87;;;23.30;96.10;;;;;;5078886;28;20490;-62
2023/08/05 12:12:35;;;;;;;2.47;1.97;;;23.20;95.50;;;;;;5082799;28;20489;-62
2023/08/05 12:15:12;;;;;;;2.13;2.03;;;23.20;95.70;;;;;;5085818;28;20801;-62
2023/08/05 12:17:39;;;;;;;2.07;1.97;;;23.20;95.40;;;;;;5085856;28;20515;-62
2023/08/05 12:20:10;;;;;;;1.93;1.83;;;23.10;95.20;;;;;;5088213;28;20474;-62
2023/08/05 12:22:38;;;;;;;1.77;1.67;;;23.00;94.50;;;;;;5088702;28;20457;-62
2023/08/05 12:25:06;;;;;;;3.63;1.80;;;23.00;95.60;;;;;;5087766;28;20446;-60
2023/08/05 12:27:33;;;;;;;2.60;2.03;;;23.10;95.30;;;;;;5086704;28;20465;-62
2023/08/05 12:30:00;;;;;;;2.23;2.10;;;23.10;95.10;;;;;;5085514;28;20480;-62
2023/08/05 12:32:27;;;;;;;1.70;1.67;;;23.10;95.80;;;;;;5088704;28;20490;-61
2023/08/05 12:34:54;;;;;;;1.47;1.37;;;23.20;95.80;;;;;;5088036;28;20460;-63
2023/08/05 12:37:21;;;;;;;1.70;1.60;;;23.20;95.00;;;;;;5079786;28;20831;-62
2023/08/05 12:39:49;;;;;;;1.83;1.73;;;23.30;96.40;;;;;;5091485;28;20925;-62
2023/08/05 12:42:15;;;;;;;1.93;1.83;;;23.20;95.50;;;;;;5089738;28;20457;-63
2023/08/05 12:44:42;;;;;;;2.40;1.90;;;23.20;95.00;;;;;;5090234;28;20462;-62
2023/08/05 12:47:09;;;;;;;1.57;1.47;;;23.20;96.20;;;;;;5091616;28;20545;-62
2023/08/05 12:49:37;;;;;;;1.90;1.80;;;23.10;96.60;;;;;;5086840;28;20458;-62
2023/08/05 12:52:04;;;;;;;1.67;1.57;;;23.10;95.80;;;;;;5081899;28;21020;-62